• Join FlightAware (Why Join?)
  • Login
  • US Flag GB Flag 
02:33 EDT


 

Airport Tracker/Info


-or-


 

Live Flight TrackerFlight Track Log ✈ CTL14 ✈ 01-May-2013 ✈ KOSU - KBAK

Flight Track Log - Related Links

Times and Time Zones

All times are in EDT time to prevent confusion due to time zone crossing. See the CTL14 flight status page for this flight to view local times or setup timezone preferences in your user account.

Time Position Orientation Groundspeed Altitude Reporting Facility
EDT Latitude Longitude Course Direction KTS MPH feet Rate Location/Type
02:08 40.0675 -83.1219 244° Southwest 122 140 2,200  Level Indianapolis Center
02:09 40.0536 -83.1719 250° West 142 163 3,100 840 Climbing Indianapolis Center
02:10 40.0494 -83.1908 254° West 134 154 3,500 600 Climbing Indianapolis Center
02:11 40.0342 -83.2397 248° West 139 160 4,000 300 Climbing Indianapolis Center
02:11 40.0233 -83.2775 249° West 168 193 4,000 60 Level Indianapolis Center
02:12 40.0194 -83.2958 255° West 152 175 4,100 660 Climbing Indianapolis Center
02:12 40.0092 -83.3303 249° West 152 175 4,700 900 Climbing Indianapolis Center
02:13 40.0044 -83.3483 251° West 155 178 5,000 780 Climbing Indianapolis Center
02:13 39.9950 -83.3803 249° West 141 162 5,500 780 Climbing Indianapolis Center
02:14 39.9911 -83.3958 252° West 146 168 5,800 480 Climbing Indianapolis Center
02:14 39.9808 -83.4303 249° West 148 170 6,000 180 Climbing Indianapolis Center
02:15 39.9786 -83.4483 261° West 148 170 6,000 60 Level Indianapolis Center
02:15 39.9661 -83.4911 249° West 173 199 6,100 60 Climbing Indianapolis Center
02:16 39.9622 -83.5092 254° West 167 192 6,100 -120 Level Indianapolis Center
02:16 39.9492 -83.5514 248° West 178 205 6,000 -120 Descending Indianapolis Center
02:17 39.9450 -83.5694 253° West 175 201 6,000 -120 Level Indianapolis Center
02:17 39.9342 -83.6122 252° West 182 209 5,900  Descending Indianapolis Center
02:18 39.9297 -83.6322 254° West 179 206 6,000 60 Climbing Indianapolis Center
02:18 39.9175 -83.6700 247° West 177 204 6,000  Level Indianapolis Center
02:19 39.9122 -83.6922 253° West 179 206 6,000  Level Indianapolis Center
02:19 39.9000 -83.7331 249° West 175 201 6,000  Level Indianapolis Center
02:20 39.8956 -83.7519 253° West 176 203 6,000  Level Indianapolis Center
02:20 39.8853 -83.7911 251° West 175 201 6,000  Level Indianapolis Center
02:21 39.8794 -83.8131 251° West 176 203 6,000  Level Indianapolis Center
02:21 39.8656 -83.8567 247° West 175 201 6,000  Level Indianapolis Center
02:22 39.8631 -83.8719 258° West 174 200 6,000  Level Indianapolis Center
02:22 39.8508 -83.9144 249° West 173 199 6,000  Level Indianapolis Center
02:23 39.8456 -83.9306 247° West 173 199 6,000  Level Indianapolis Center
02:24 39.8314 -83.9772 248° West 174 200 6,000  Level Indianapolis Center
02:25 39.8161 -84.0378 252° West 174 200 6,000  Level Indianapolis Center
02:26 39.7978 -84.1022 250° West 177 204 6,000  Level Indianapolis Center
02:27 39.7817 -84.1581 249° West 170 196 6,100  Climbing Indianapolis Center
02:28 39.7669 -84.2133 251° West 172 198 6,000 -60 Descending Indianapolis Center
02:29 39.7497 -84.2706 249° West 174 200 6,000  Level Indianapolis Center
02:30 39.7317 -84.3350 250° West 173 199 6,100  Climbing Indianapolis Center
02:30 39.7175 -84.3858 250° West 173 199 6,000  Descending Indianapolis Center
02:31 39.7022 -84.4433 251° West 175 201 6,100  Climbing Indianapolis Center
02:32 39.6822 -84.5086 248° West 175 201 6,000 -60 Descending Indianapolis Center
02:34 39.6650 -84.5658 249° West 173 199 6,000  Level Indianapolis Center
02:35 39.6469 -84.6322 251° West 174 200 6,000  Level Indianapolis Center
02:36 39.6283 -84.6903 247° West 172 198 6,100  Climbing Indianapolis Center
02:37 39.6111 -84.7478 249° West 171 197 6,100  Level Indianapolis Center
02:38 39.5953 -84.8058 251° West 170 196 6,100 -60 Level Indianapolis Center
02:39 39.5781 -84.8633 249° West 170 196 6,000 -60 Descending Indianapolis Center
02:40 39.5622 -84.9167 249° West 171 197 6,000  Level Indianapolis Center
02:41 39.5444 -84.9742 248° West 171 197 6,000  Level Indianapolis Center
02:42 39.5267 -85.0317 248° West 171 197 6,000  Level Indianapolis Center
02:43 39.5119 -85.0889 252° West 168 193 6,000  Level Indianapolis Center
02:44 39.4939 -85.1453 247° West 168 193 6,100  Climbing Indianapolis Center
02:45 39.4781 -85.2019 250° West 167 192 6,100 -60 Level Indianapolis Center
02:46 39.4606 -85.2583 248° West 167 192 6,000 -60 Descending Indianapolis Center
02:47 39.4439 -85.3156 249° West 170 196 6,000 -180 Level Indianapolis Center
02:48 39.4261 -85.3722 248° West 168 193 5,700 -420 Descending Indianapolis Center
02:49 39.4078 -85.4314 248° West 175 201 5,200 -600 Descending Indianapolis Center
02:50 39.3892 -85.4908 248° West 176 203 4,600 -600 Descending Indianapolis Center
02:51 39.3711 -85.5500 248° West 176 203 4,000 -660 Descending Indianapolis Center
02:52 39.3542 -85.6114 250° West 178 205 3,300 -480 Descending Indianapolis Center
02:53 39.3389 -85.6708 252° West 177 204 3,100 -240 Descending Indianapolis Center